Time;durP1;ratioP1;P1;durP2;ratioP2;P2;SDS_P1;SDS_P2;PMS_P1;PMS_P2;Temp;Humidity;BMP_temperature;BMP_pressure;BME280_temperature;BME280_humidity;BME280_pressure;Samples;Min_cycle;Max_cycle;Signal;HPM_P1;HPM_P2
2023/12/31 00:00:48;;;;;;;7.18;2.22;;;;;;;;;;5026180;28;20402;-77
2023/12/31 00:03:13;;;;;;;7.72;2.30;;;;;;;;;;5018818;28;20046;-77
2023/12/31 00:05:39;;;;;;;6.82;2.95;;;;;;;;;;5020034;28;20091;-77
2023/12/31 00:08:04;;;;;;;6.65;2.28;;;;;;;;;;5017380;28;20044;-77
2023/12/31 00:10:29;;;;;;;5.93;2.35;;;;;;;;;;5008804;28;20409;-77
2023/12/31 00:12:54;;;;;;;4.90;2.20;;;;;;;;;;5012122;28;20025;-77
2023/12/31 00:15:19;;;;;;;5.68;2.00;;;;;;;;;;5016599;28;20549;-78
2023/12/31 00:17:44;;;;;;;7.57;2.85;;;;;;;;;;5020683;28;20022;-77
2023/12/31 00:20:10;;;;;;;6.47;2.63;;;;;;;;;;5021742;28;20053;-77
2023/12/31 00:22:35;;;;;;;5.88;2.30;;;;;;;;;;5025280;28;20045;-77
2023/12/31 00:25:01;;;;;;;7.30;2.30;;;;;;;;;;5014020;28;20104;-77
2023/12/31 00:27:26;;;;;;;5.90;2.20;;;;;;;;;;5012478;28;20038;-77
2023/12/31 00:29:51;;;;;;;6.07;2.15;;;;;;;;;;5025398;28;20515;-77
2023/12/31 00:32:16;;;;;;;8.32;2.40;;;;;;;;;;5008077;28;20129;-77
2023/12/31 00:34:42;;;;;;;7.30;2.50;;;;;;;;;;5018296;28;20083;-77
2023/12/31 00:37:07;;;;;;;6.38;2.45;;;;;;;;;;5014897;28;20553;-77
2023/12/31 00:39:32;;;;;;;6.40;2.55;;;;;;;;;;5005740;28;20045;-77
2023/12/31 00:41:57;;;;;;;5.82;2.05;;;;;;;;;;5008167;28;20108;-77
2023/12/31 00:44:23;;;;;;;8.20;3.25;;;;;;;;;;5019651;28;20087;-77
2023/12/31 00:46:48;;;;;;;6.93;2.40;;;;;;;;;;5024592;28;20079;-77
2023/12/31 00:49:13;;;;;;;7.93;2.67;;;;;;;;;;5011025;28;20513;-77
2023/12/31 00:51:39;;;;;;;8.60;3.20;;;;;;;;;;5008002;28;20478;-77
2023/12/31 00:54:04;;;;;;;6.47;2.60;;;;;;;;;;5018345;28;20030;-77
2023/12/31 00:56:30;;;;;;;8.18;2.95;;;;;;;;;;5021734;28;20049;-77
2023/12/31 00:58:55;;;;;;;6.03;2.22;;;;;;;;;;5029771;28;20026;-76
2023/12/31 01:01:20;;;;;;;5.38;2.60;;;;;;;;;;5022943;28;20096;-78
2023/12/31 01:03:45;;;;;;;7.53;3.05;;;;;;;;;;5022732;28;20029;-77
2023/12/31 01:06:11;;;;;;;4.88;2.60;;;;;;;;;;5019467;28;20501;-77
2023/12/31 01:08:36;;;;;;;7.63;2.67;;;;;;;;;;5005620;28;20045;-78
2023/12/31 01:11:02;;;;;;;8.90;3.58;;;;;;;;;;5023024;28;20068;-77
2023/12/31 01:13:27;;;;;;;7.60;3.20;;;;;;;;;;5010311;28;20402;-77
2023/12/31 01:15:52;;;;;;;6.43;3.05;;;;;;;;;;5027858;28;20570;-77
2023/12/31 01:18:19;;;;;;;7.82;3.17;;;;;;;;;;4985678;28;20120;-78
2023/12/31 01:20:44;;;;;;;6.20;3.03;;;;;;;;;;5019807;28;20033;-77
2023/12/31 01:23:09;;;;;;;6.88;2.63;;;;;;;;;;5023668;28;20481;-76
2023/12/31 01:25:34;;;;;;;6.03;2.50;;;;;;;;;;5007518;28;20486;-77
2023/12/31 01:28:00;;;;;;;6.63;2.67;;;;;;;;;;5028364;28;20075;-77
2023/12/31 01:30:26;;;;;;;5.97;2.53;;;;;;;;;;5025378;28;20405;-77
2023/12/31 01:32:51;;;;;;;5.70;1.98;;;;;;;;;;5018548;28;20121;-77
2023/12/31 01:35:18;;;;;;;7.15;2.92;;;;;;;;;;5017743;28;20105;-77
2023/12/31 01:37:43;;;;;;;8.15;2.88;;;;;;;;;;5020824;28;20109;-77
2023/12/31 01:40:08;;;;;;;6.90;2.35;;;;;;;;;;5029566;28;20112;-77
2023/12/31 01:42:34;;;;;;;8.15;2.70;;;;;;;;;;5023510;28;20028;-77
2023/12/31 01:44:59;;;;;;;7.13;2.53;;;;;;;;;;5012984;28;20037;-77
2023/12/31 01:47:24;;;;;;;7.80;2.67;;;;;;;;;;5018222;28;20084;-77
2023/12/31 01:49:50;;;;;;;8.73;2.72;;;;;;;;;;5010408;28;20029;-77
2023/12/31 01:52:15;;;;;;;8.35;2.75;;;;;;;;;;5018600;28;20080;-77
2023/12/31 01:54:41;;;;;;;7.90;2.90;;;;;;;;;;5012156;28;20034;-77
2023/12/31 01:57:06;;;;;;;7.63;2.50;;;;;;;;;;5019930;28;20078;-76
2023/12/31 01:59:32;;;;;;;8.45;2.45;;;;;;;;;;5005296;28;20026;-76
2023/12/31 02:01:57;;;;;;;7.88;2.60;;;;;;;;;;5006611;28;20529;-77
2023/12/31 02:04:23;;;;;;;5.43;2.58;;;;;;;;;;5002527;28;20026;-77
2023/12/31 02:06:48;;;;;;;5.80;2.10;;;;;;;;;;5004575;28;20056;-77
2023/12/31 02:09:14;;;;;;;6.15;2.50;;;;;;;;;;5004376;28;20061;-77
2023/12/31 02:11:40;;;;;;;7.97;2.20;;;;;;;;;;5022749;28;20126;-77
2023/12/31 02:14:05;;;;;;;7.10;2.83;;;;;;;;;;5022735;28;20077;-77
2023/12/31 02:16:30;;;;;;;6.13;2.40;;;;;;;;;;5022403;28;20042;-77
2023/12/31 02:18:55;;;;;;;6.68;2.08;;;;;;;;;;5004645;28;20030;-77
2023/12/31 02:21:21;;;;;;;5.80;2.33;;;;;;;;;;5080169;23;20128;-78
2023/12/31 02:23:46;;;;;;;7.13;2.70;;;;;;;;;;5035228;28;20024;-77
2023/12/31 02:26:12;;;;;;;7.50;2.50;;;;;;;;;;5026469;28;20496;-78
2023/12/31 02:28:39;;;;;;;8.43;2.58;;;;;;;;;;5029475;28;20030;-77
2023/12/31 02:31:05;;;;;;;5.55;2.70;;;;;;;;;;5022742;28;20022;-78
2023/12/31 02:33:30;;;;;;;5.15;2.30;;;;;;;;;;5024290;28;20564;-78
2023/12/31 02:35:55;;;;;;;7.07;2.45;;;;;;;;;;5025409;28;20026;-77
2023/12/31 02:38:21;;;;;;;4.40;2.10;;;;;;;;;;5021716;28;20521;-78
2023/12/31 02:40:46;;;;;;;5.93;2.03;;;;;;;;;;5027431;28;20462;-77
2023/12/31 02:43:11;;;;;;;4.75;1.83;;;;;;;;;;5024430;28;20033;-78
2023/12/31 02:45:36;;;;;;;9.25;2.20;;;;;;;;;;5030150;28;20131;-78
2023/12/31 02:48:01;;;;;;;6.00;2.63;;;;;;;;;;5025367;28;20029;-77
2023/12/31 02:50:28;;;;;;;6.28;2.20;;;;;;;;;;5026124;28;20022;-77
2023/12/31 02:52:53;;;;;;;5.70;2.70;;;;;;;;;;5021319;28;20492;-78
2023/12/31 02:55:22;;;;;;;7.05;2.90;;;;;;;;;;5021770;28;20030;-76
2023/12/31 02:57:47;;;;;;;8.90;2.50;;;;;;;;;;5027614;28;20031;-78
2023/12/31 03:00:13;;;;;;;6.35;2.28;;;;;;;;;;5033661;28;20025;-78
2023/12/31 03:02:40;;;;;;;6.32;3.08;;;;;;;;;;5008147;28;20039;-78
2023/12/31 03:05:07;;;;;;;5.78;2.50;;;;;;;;;;5021645;28;20073;-78
2023/12/31 03:07:32;;;;;;;5.05;2.17;;;;;;;;;;5020788;28;20056;-78
2023/12/31 03:09:59;;;;;;;5.35;2.40;;;;;;;;;;5025073;28;20018;-78
2023/12/31 03:12:24;;;;;;;4.90;1.98;;;;;;;;;;5015850;28;20026;-77
2023/12/31 03:14:49;;;;;;;3.97;1.90;;;;;;;;;;5015299;28;20409;-78
2023/12/31 03:17:14;;;;;;;6.72;2.33;;;;;;;;;;5025173;28;20121;-77
2023/12/31 03:19:39;;;;;;;6.50;1.98;;;;;;;;;;5026950;28;20071;-78
2023/12/31 03:22:04;;;;;;;5.13;1.98;;;;;;;;;;5024696;28;20502;-78
2023/12/31 03:24:30;;;;;;;4.97;1.55;;;;;;;;;;5020793;28;20042;-77
2023/12/31 03:26:55;;;;;;;6.20;2.40;;;;;;;;;;5022511;28;20030;-78
2023/12/31 03:29:20;;;;;;;3.80;1.70;;;;;;;;;;5031269;28;20033;-77
2023/12/31 03:31:45;;;;;;;6.03;1.90;;;;;;;;;;5023763;28;20402;-78
2023/12/31 03:34:10;;;;;;;5.80;2.15;;;;;;;;;;5019258;28;20032;-78
2023/12/31 03:36:36;;;;;;;4.80;1.95;;;;;;;;;;5025070;28;20033;-78
2023/12/31 03:39:01;;;;;;;5.30;1.80;;;;;;;;;;5024868;28;20036;-78
2023/12/31 03:41:26;;;;;;;6.93;2.35;;;;;;;;;;5017801;28;20029;-76
2023/12/31 03:43:51;;;;;;;8.35;2.25;;;;;;;;;;5021797;28;20037;-78
2023/12/31 03:46:17;;;;;;;4.63;2.13;;;;;;;;;;5021379;28;20523;-78
2023/12/31 03:48:42;;;;;;;5.20;2.05;;;;;;;;;;5023820;28;20028;-78
2023/12/31 03:51:07;;;;;;;5.03;1.75;;;;;;;;;;5029645;28;20022;-78
2023/12/31 03:53:33;;;;;;;7.38;1.80;;;;;;;;;;5022235;28;20402;-78
2023/12/31 03:55:58;;;;;;;5.35;2.20;;;;;;;;;;5014858;28;20097;-78
2023/12/31 03:58:23;;;;;;;7.05;2.28;;;;;;;;;;5029728;28;20342;-78
2023/12/31 04:00:48;;;;;;;6.32;1.98;;;;;;;;;;5026616;28;20025;-78
2023/12/31 04:03:14;;;;;;;5.65;2.05;;;;;;;;;;5020882;28;20057;-78
2023/12/31 04:05:39;;;;;;;6.13;2.13;;;;;;;;;;5023359;28;20577;-78
2023/12/31 04:08:04;;;;;;;4.60;1.90;;;;;;;;;;5019510;28;20021;-78
2023/12/31 04:10:30;;;;;;;5.32;1.85;;;;;;;;;;5023720;28;20077;-78
2023/12/31 04:12:55;;;;;;;6.85;2.28;;;;;;;;;;5026281;28;20048;-78
2023/12/31 04:15:21;;;;;;;4.93;1.90;;;;;;;;;;5020118;28;20033;-77
2023/12/31 04:17:46;;;;;;;6.20;2.13;;;;;;;;;;5025227;28;20045;-78
2023/12/31 04:20:11;;;;;;;5.18;1.52;;;;;;;;;;5021438;28;20117;-77
2023/12/31 04:22:36;;;;;;;4.15;1.70;;;;;;;;;;5020350;28;20035;-78
2023/12/31 04:25:01;;;;;;;5.25;1.70;;;;;;;;;;5017365;28;20056;-78
2023/12/31 04:27:27;;;;;;;4.53;1.42;;;;;;;;;;5024801;28;20040;-77
2023/12/31 04:29:52;;;;;;;6.60;2.47;;;;;;;;;;5031968;28;20030;-78
2023/12/31 04:32:17;;;;;;;6.53;1.40;;;;;;;;;;5019686;28;20045;-77
2023/12/31 04:34:43;;;;;;;4.03;1.80;;;;;;;;;;5020926;28;20060;-77
2023/12/31 04:37:08;;;;;;;4.75;1.83;;;;;;;;;;5017718;28;20120;-78
2023/12/31 04:39:33;;;;;;;5.28;1.70;;;;;;;;;;5022284;28;20166;-77
2023/12/31 04:41:59;;;;;;;6.05;1.77;;;;;;;;;;5021291;28;20033;-78
2023/12/31 04:44:24;;;;;;;3.97;1.88;;;;;;;;;;5020705;28;20042;-78
2023/12/31 04:46:50;;;;;;;5.43;1.88;;;;;;;;;;5029526;28;20025;-78
2023/12/31 04:49:16;;;;;;;4.88;1.60;;;;;;;;;;5036747;28;20486;-78
2023/12/31 04:51:41;;;;;;;5.50;1.75;;;;;;;;;;5018754;28;20038;-76
2023/12/31 04:54:07;;;;;;;5.15;1.73;;;;;;;;;;5023166;28;20037;-78
2023/12/31 04:56:32;;;;;;;3.75;1.60;;;;;;;;;;5021018;28;20034;-78
2023/12/31 04:58:58;;;;;;;3.72;1.75;;;;;;;;;;5015851;28;20032;-78
2023/12/31 05:01:26;;;;;;;7.65;2.13;;;;;;;;;;5028270;28;20026;-77
2023/12/31 05:03:51;;;;;;;4.88;1.80;;;;;;;;;;5014587;28;20087;-78
2023/12/31 05:06:16;;;;;;;6.28;2.10;;;;;;;;;;5017435;28;20041;-78
2023/12/31 05:08:45;;;;;;;8.52;1.98;;;;;;;;;;5028927;28;20120;-78
2023/12/31 05:11:11;;;;;;;4.35;1.85;;;;;;;;;;5030778;28;20479;-78
2023/12/31 05:13:40;;;;;;;5.15;2.20;;;;;;;;;;5025009;28;20033;-77
2023/12/31 05:16:06;;;;;;;6.47;2.30;;;;;;;;;;5019311;28;20267;-78
2023/12/31 05:18:31;;;;;;;6.72;2.28;;;;;;;;;;5019280;28;20157;-78
2023/12/31 05:20:56;;;;;;;3.67;1.80;;;;;;;;;;5026076;28;20057;-78
2023/12/31 05:23:21;;;;;;;4.65;1.85;;;;;;;;;;5021942;28;20069;-77
2023/12/31 05:25:48;;;;;;;6.90;1.88;;;;;;;;;;5022232;28;20068;-78
2023/12/31 05:28:14;;;;;;;4.32;2.15;;;;;;;;;;5026377;28;20064;-78
2023/12/31 05:30:41;;;;;;;8.00;2.90;;;;;;;;;;5027862;28;20429;-78
2023/12/31 05:33:06;;;;;;;5.13;2.30;;;;;;;;;;5014064;28;20026;-78
2023/12/31 05:35:31;;;;;;;5.20;2.03;;;;;;;;;;5018536;28;20056;-77
2023/12/31 05:37:57;;;;;;;4.50;1.98;;;;;;;;;;5022520;28;20038;-78
2023/12/31 05:40:22;;;;;;;8.02;2.85;;;;;;;;;;5030351;28;20052;-78
2023/12/31 05:42:47;;;;;;;4.22;2.00;;;;;;;;;;5021635;28;20025;-78
2023/12/31 05:45:12;;;;;;;7.97;2.97;;;;;;;;;;5023982;28;20122;-78
2023/12/31 05:47:37;;;;;;;4.72;2.13;;;;;;;;;;5019451;28;20053;-78
2023/12/31 05:50:02;;;;;;;6.57;2.47;;;;;;;;;;5027882;28;20025;-78
2023/12/31 05:52:28;;;;;;;4.95;2.10;;;;;;;;;;5020536;28;20505;-78
2023/12/31 05:54:53;;;;;;;5.15;2.10;;;;;;;;;;5021982;28;20025;-77
2023/12/31 05:57:18;;;;;;;7.28;2.97;;;;;;;;;;5020636;28;20545;-78
2023/12/31 05:59:43;;;;;;;5.35;2.40;;;;;;;;;;5026890;28;20032;-79
2023/12/31 06:02:08;;;;;;;8.55;2.47;;;;;;;;;;5024650;28;20025;-78
2023/12/31 06:04:33;;;;;;;7.15;2.45;;;;;;;;;;5029560;28;20415;-79
2023/12/31 06:06:59;;;;;;;7.95;2.50;;;;;;;;;;5021536;28;20093;-78
2023/12/31 06:09:26;;;;;;;3.97;1.75;;;;;;;;;;5021552;28;20375;-78
2023/12/31 06:11:51;;;;;;;5.55;2.35;;;;;;;;;;5020176;28;20386;-79
2023/12/31 06:14:17;;;;;;;6.90;2.25;;;;;;;;;;5018498;28;20025;-78
2023/12/31 06:16:42;;;;;;;7.60;2.50;;;;;;;;;;5027033;28;20034;-78
2023/12/31 06:19:07;;;;;;;6.38;2.25;;;;;;;;;;5025817;28;20404;-78
2023/12/31 06:21:32;;;;;;;6.00;2.28;;;;;;;;;;5028770;28;20044;-77
2023/12/31 06:23:57;;;;;;;6.07;1.92;;;;;;;;;;5023565;28;20029;-78
2023/12/31 06:26:23;;;;;;;5.43;1.92;;;;;;;;;;5021288;28;20045;-78
2023/12/31 06:28:48;;;;;;;9.73;2.50;;;;;;;;;;5027575;28;20453;-78
2023/12/31 06:31:13;;;;;;;5.75;2.10;;;;;;;;;;5030447;28;20026;-78
2023/12/31 06:33:38;;;;;;;5.43;2.80;;;;;;;;;;5028335;28;20022;-78
2023/12/31 06:36:03;;;;;;;5.07;2.17;;;;;;;;;;5021667;28;20517;-78
2023/12/31 06:38:29;;;;;;;3.97;1.73;;;;;;;;;;5019829;28;20057;-78
2023/12/31 06:40:54;;;;;;;5.43;2.13;;;;;;;;;;5012473;28;20033;-78
2023/12/31 06:43:19;;;;;;;4.72;1.92;;;;;;;;;;5020210;28;20487;-78
2023/12/31 06:45:44;;;;;;;4.35;2.03;;;;;;;;;;5029908;28;20033;-78
2023/12/31 06:48:09;;;;;;;5.05;1.90;;;;;;;;;;5021764;28;20030;-78
2023/12/31 06:50:35;;;;;;;4.35;1.70;;;;;;;;;;5028685;28;20509;-77
2023/12/31 06:53:00;;;;;;;7.78;2.45;;;;;;;;;;5022275;28;20037;-78
2023/12/31 06:55:25;;;;;;;7.50;2.60;;;;;;;;;;5026289;28;20030;-78
2023/12/31 06:57:51;;;;;;;4.05;1.55;;;;;;;;;;5021790;28;20029;-76
2023/12/31 07:00:16;;;;;;;5.15;2.20;;;;;;;;;;5027393;28;20045;-78
2023/12/31 07:02:42;;;;;;;5.57;2.00;;;;;;;;;;5027367;28;20042;-78
2023/12/31 07:05:08;;;;;;;4.13;1.70;;;;;;;;;;5019324;28;20025;-78
2023/12/31 07:07:33;;;;;;;5.97;2.05;;;;;;;;;;5018388;28;20105;-78
2023/12/31 07:09:58;;;;;;;7.05;2.40;;;;;;;;;;5021652;28;20038;-78
2023/12/31 07:12:23;;;;;;;4.65;2.15;;;;;;;;;;5023470;28;20080;-78
2023/12/31 07:14:49;;;;;;;6.68;2.45;;;;;;;;;;5024842;28;20029;-78
2023/12/31 07:17:14;;;;;;;6.63;2.45;;;;;;;;;;5019677;28;20398;-75
2023/12/31 07:19:39;;;;;;;6.80;2.40;;;;;;;;;;5022678;28;20037;-77
2023/12/31 07:22:04;;;;;;;8.32;2.72;;;;;;;;;;5021837;28;20076;-78
2023/12/31 07:24:32;;;;;;;7.05;2.50;;;;;;;;;;5014800;28;20042;-78
2023/12/31 07:26:57;;;;;;;7.85;2.88;;;;;;;;;;5007700;28;20057;-77
2023/12/31 07:29:22;;;;;;;5.88;2.28;;;;;;;;;;5030000;28;20036;-78
2023/12/31 07:31:48;;;;;;;6.45;3.00;;;;;;;;;;5028148;28;20071;-78
2023/12/31 07:34:13;;;;;;;7.80;2.78;;;;;;;;;;5022489;28;20030;-78
2023/12/31 07:36:38;;;;;;;6.72;2.55;;;;;;;;;;5017477;28;20034;-78
2023/12/31 07:39:03;;;;;;;8.30;3.08;;;;;;;;;;5014371;28;20041;-77
2023/12/31 07:41:29;;;;;;;7.97;2.80;;;;;;;;;;5030624;28;20092;-78
2023/12/31 07:43:54;;;;;;;7.03;2.05;;;;;;;;;;5022318;28;20029;-78
2023/12/31 07:46:19;;;;;;;6.95;3.00;;;;;;;;;;5021384;28;20139;-77
2023/12/31 07:48:45;;;;;;;4.75;2.10;;;;;;;;;;5024403;28;20084;-78
2023/12/31 07:51:10;;;;;;;8.80;2.55;;;;;;;;;;5024854;28;20033;-78
2023/12/31 07:53:35;;;;;;;5.55;2.67;;;;;;;;;;5022816;28;20030;-76
2023/12/31 07:56:00;;;;;;;8.60;2.63;;;;;;;;;;5011801;28;20032;-78
2023/12/31 07:58:27;;;;;;;7.43;3.00;;;;;;;;;;5027351;28;20025;-78
2023/12/31 08:00:52;;;;;;;6.03;2.53;;;;;;;;;;5022222;28;20025;-78
2023/12/31 08:03:18;;;;;;;6.10;2.30;;;;;;;;;;5021782;28;20390;-78
2023/12/31 08:05:43;;;;;;;6.43;2.38;;;;;;;;;;5021742;28;20033;-78
2023/12/31 08:08:11;;;;;;;6.35;2.53;;;;;;;;;;5017579;28;20025;-78
2023/12/31 08:10:37;;;;;;;7.07;2.45;;;;;;;;;;5024509;28;20026;-77
2023/12/31 08:13:02;;;;;;;5.72;2.30;;;;;;;;;;5025794;28;20073;-78
2023/12/31 08:15:27;;;;;;;5.43;2.28;;;;;;;;;;5018218;28;20029;-78
2023/12/31 08:17:52;;;;;;;7.35;2.33;;;;;;;;;;5017062;28;20025;-78
2023/12/31 08:20:18;;;;;;;6.60;2.67;;;;;;;;;;5016865;28;20064;-77
2023/12/31 08:22:43;;;;;;;5.78;2.75;;;;;;;;;;5041152;23;20053;-79
2023/12/31 08:25:08;;;;;;;7.07;2.60;;;;;;;;;;5030349;28;20029;-78
2023/12/31 08:27:33;;;;;;;5.95;2.78;;;;;;;;;;5026833;28;20461;-78
2023/12/31 08:29:58;;;;;;;8.10;3.13;;;;;;;;;;5029623;28;20022;-79
2023/12/31 08:32:28;;;;;;;8.10;2.85;;;;;;;;;;5024234;28;20091;-79
2023/12/31 08:34:53;;;;;;;7.38;2.78;;;;;;;;;;5019218;28;20433;-79
2023/12/31 08:37:19;;;;;;;6.35;2.60;;;;;;;;;;5018239;28;20042;-79
2023/12/31 08:39:44;;;;;;;5.85;2.63;;;;;;;;;;5028633;28;20293;-79
2023/12/31 08:42:09;;;;;;;7.35;2.53;;;;;;;;;;5019633;28;20104;-79
2023/12/31 08:44:34;;;;;;;6.40;2.70;;;;;;;;;;5016773;28;20481;-79
2023/12/31 08:46:59;;;;;;;6.05;2.55;;;;;;;;;;5012935;28;20466;-79
2023/12/31 08:49:27;;;;;;;5.95;2.30;;;;;;;;;;5017214;28;20088;-79
2023/12/31 08:51:54;;;;;;;6.57;2.65;;;;;;;;;;5017821;28;20036;-79
2023/12/31 08:54:20;;;;;;;6.38;2.75;;;;;;;;;;5024411;28;20045;-79
2023/12/31 08:56:45;;;;;;;6.88;2.83;;;;;;;;;;5025588;28;20161;-79
2023/12/31 08:59:11;;;;;;;4.80;1.90;;;;;;;;;;5018727;28;20046;-79
2023/12/31 09:01:36;;;;;;;4.82;2.03;;;;;;;;;;5019606;28;20410;-79
2023/12/31 09:04:01;;;;;;;7.57;2.60;;;;;;;;;;5025635;28;20087;-79
2023/12/31 09:06:27;;;;;;;4.32;1.90;;;;;;;;;;5022020;28;20060;-79
2023/12/31 09:08:52;;;;;;;3.90;1.80;;;;;;;;;;5025676;28;20038;-79
2023/12/31 09:11:19;;;;;;;5.53;1.98;;;;;;;;;;5023217;28;20033;-79
2023/12/31 09:13:45;;;;;;;4.50;1.80;;;;;;;;;;5021223;28;20033;-79
2023/12/31 09:16:10;;;;;;;8.73;2.33;;;;;;;;;;5020111;28;20037;-79
2023/12/31 09:18:35;;;;;;;6.05;1.88;;;;;;;;;;5021562;28;20501;-80
2023/12/31 09:21:00;;;;;;;5.25;2.33;;;;;;;;;;5020216;28;20029;-80
2023/12/31 09:23:25;;;;;;;3.95;1.92;;;;;;;;;;5014709;28;20021;-79
2023/12/31 09:25:53;;;;;;;6.93;2.17;;;;;;;;;;5019307;28;20427;-80
2023/12/31 09:28:18;;;;;;;4.28;1.95;;;;;;;;;;5024022;28;20400;-80
2023/12/31 09:30:43;;;;;;;4.63;1.75;;;;;;;;;;5016199;28;20033;-79
2023/12/31 09:33:08;;;;;;;4.65;1.88;;;;;;;;;;5021284;28;20026;-80
2023/12/31 09:35:34;;;;;;;4.15;2.10;;;;;;;;;;5021673;28;20037;-79
2023/12/31 09:38:00;;;;;;;4.93;1.92;;;;;;;;;;5015633;28;20402;-79
2023/12/31 09:40:25;;;;;;;8.38;2.97;;;;;;;;;;5017575;28;20096;-79
2023/12/31 09:42:50;;;;;;;6.97;2.53;;;;;;;;;;5012550;28;20101;-79
2023/12/31 09:45:19;;;;;;;5.63;2.40;;;;;;;;;;5017848;28;20018;-79
2023/12/31 09:47:44;;;;;;;3.97;2.10;;;;;;;;;;5023577;28;20065;-79
2023/12/31 09:50:10;;;;;;;7.18;2.33;;;;;;;;;;5021372;28;20045;-79
2023/12/31 09:52:36;;;;;;;6.43;2.22;;;;;;;;;;5019287;28;20034;-80
2023/12/31 09:55:02;;;;;;;5.97;2.03;;;;;;;;;;5025056;28;20030;-80
2023/12/31 09:57:30;;;;;;;6.15;2.40;;;;;;;;;;5022491;28;20449;-80
2023/12/31 09:59:55;;;;;;;5.85;2.20;;;;;;;;;;5026588;28;20037;-80
2023/12/31 10:02:22;;;;;;;5.47;2.20;;;;;;;;;;5025137;28;20033;-79
2023/12/31 10:04:49;;;;;;;5.15;2.13;;;;;;;;;;5023235;28;20041;-80
2023/12/31 10:07:14;;;;;;;7.13;2.22;;;;;;;;;;5030586;28;20077;-78
2023/12/31 10:09:40;;;;;;;5.38;1.90;;;;;;;;;;5023014;28;20065;-79
2023/12/31 10:12:06;;;;;;;5.35;2.00;;;;;;;;;;5014666;28;20039;-80
2023/12/31 10:14:31;;;;;;;4.47;1.73;;;;;;;;;;5022283;28;20042;-80
2023/12/31 10:16:56;;;;;;;4.72;1.83;;;;;;;;;;5022907;28;20025;-80
2023/12/31 10:19:21;;;;;;;4.32;1.70;;;;;;;;;;5018309;28;20068;-79
2023/12/31 10:21:47;;;;;;;4.88;2.22;;;;;;;;;;5024308;28;20098;-80
2023/12/31 10:24:12;;;;;;;6.57;2.17;;;;;;;;;;5019817;28;20412;-80
2023/12/31 10:26:37;;;;;;;5.65;2.20;;;;;;;;;;5023671;28;20425;-80
2023/12/31 10:29:05;;;;;;;4.30;1.85;;;;;;;;;;5030426;28;20021;-80
2023/12/31 10:31:33;;;;;;;5.25;2.08;;;;;;;;;;5020244;28;20034;-80
2023/12/31 10:34:11;;;;;;;4.97;1.75;;;;;;;;;;5018999;28;20029;-80
2023/12/31 10:36:37;;;;;;;5.82;1.77;;;;;;;;;;5023294;28;20048;-80
2023/12/31 10:39:03;;;;;;;5.18;2.33;;;;;;;;;;5017780;28;20437;-80
2023/12/31 10:41:32;;;;;;;5.78;2.30;;;;;;;;;;5027762;28;20501;-80
2023/12/31 10:43:58;;;;;;;4.50;2.00;;;;;;;;;;5026401;28;20029;-80
2023/12/31 10:46:24;;;;;;;4.82;1.67;;;;;;;;;;5026267;28;20033;-80
2023/12/31 10:48:55;;;;;;;5.90;1.83;;;;;;;;;;5018608;28;20072;-80
2023/12/31 10:51:24;;;;;;;5.03;1.90;;;;;;;;;;5015815;28;20125;-80
2023/12/31 10:53:51;;;;;;;4.53;2.00;;;;;;;;;;5020303;28;20033;-80
2023/12/31 10:56:17;;;;;;;5.50;2.47;;;;;;;;;;5029514;28;20436;-80
2023/12/31 10:58:42;;;;;;;8.23;2.75;;;;;;;;;;5026523;28;20038;-80
2023/12/31 11:01:08;;;;;;;9.50;2.75;;;;;;;;;;5018240;28;20163;-80
2023/12/31 11:03:33;;;;;;;6.35;1.70;;;;;;;;;;5020760;28;20030;-81
2023/12/31 11:06:00;;;;;;;4.97;2.40;;;;;;;;;;5020399;28;20026;-80
2023/12/31 11:08:27;;;;;;;5.28;2.10;;;;;;;;;;5014730;28;20076;-80
2023/12/31 11:10:53;;;;;;;6.22;2.20;;;;;;;;;;5028347;28;20025;-80
2023/12/31 11:13:18;;;;;;;4.20;1.80;;;;;;;;;;5024933;28;20030;-84
2023/12/31 11:15:44;;;;;;;5.43;2.22;;;;;;;;;;5022483;28;20113;-80
2023/12/31 11:18:20;;;;;;;5.53;2.13;;;;;;;;;;5024794;28;20482;-81
2023/12/31 11:21:01;;;;;;;4.72;1.60;;;;;;;;;;5024199;28;20456;-81
2023/12/31 11:23:35;;;;;;;4.10;1.65;;;;;;;;;;5024907;28;20037;-81
2023/12/31 11:26:01;;;;;;;4.35;1.75;;;;;;;;;;5025729;28;20474;-81
2023/12/31 11:28:27;;;;;;;6.43;2.20;;;;;;;;;;5023158;28;20029;-81
2023/12/31 11:30:55;;;;;;;3.92;1.58;;;;;;;;;;5020760;28;20429;-81
2023/12/31 11:33:21;;;;;;;4.88;1.67;;;;;;;;;;5013952;28;20029;-81
2023/12/31 11:35:50;;;;;;;5.97;1.95;;;;;;;;;;5016059;28;20117;-81
2023/12/31 11:38:15;;;;;;;4.97;1.80;;;;;;;;;;5023890;28;20421;-81
2023/12/31 11:40:40;;;;;;;4.30;2.03;;;;;;;;;;5022066;28;20033;-82
2023/12/31 11:43:10;;;;;;;4.95;2.13;;;;;;;;;;5031638;28;20401;-81
2023/12/31 11:45:38;;;;;;;4.72;1.90;;;;;;;;;;5020704;28;20037;-81
2023/12/31 11:48:03;;;;;;;4.38;2.08;;;;;;;;;;5020861;28;20032;-79
2023/12/31 11:50:29;;;;;;;4.22;1.92;;;;;;;;;;5024654;28;20022;-79
2023/12/31 11:52:54;;;;;;;4.28;1.73;;;;;;;;;;5030056;28;20084;-80
2023/12/31 11:55:20;;;;;;;4.35;1.80;;;;;;;;;;5019470;28;20026;-81
2023/12/31 11:57:48;;;;;;;6.15;2.20;;;;;;;;;;5025835;28;20041;-80
2023/12/31 12:00:13;;;;;;;4.47;1.95;;;;;;;;;;5019184;28;20508;-79
2023/12/31 12:02:38;;;;;;;5.13;2.10;;;;;;;;;;5023460;28;20038;-81
2023/12/31 12:05:04;;;;;;;4.53;1.92;;;;;;;;;;5020616;28;20059;-79
2023/12/31 12:07:30;;;;;;;6.38;2.55;;;;;;;;;;5022904;28;20393;-79
2023/12/31 12:09:55;;;;;;;5.25;2.42;;;;;;;;;;5024129;28;20030;-79
2023/12/31 12:12:21;;;;;;;6.43;1.65;;;;;;;;;;5022535;28;20021;-80
2023/12/31 12:14:49;;;;;;;4.40;1.77;;;;;;;;;;5016110;28;20037;-80
2023/12/31 12:17:15;;;;;;;4.72;2.20;;;;;;;;;;5023664;28;20040;-79
2023/12/31 12:19:40;;;;;;;3.58;1.65;;;;;;;;;;5023097;28;20033;-79
2023/12/31 12:22:06;;;;;;;5.72;2.10;;;;;;;;;;5023904;28;20555;-79
2023/12/31 12:24:31;;;;;;;4.93;2.00;;;;;;;;;;5016653;28;20038;-78
2023/12/31 12:26:58;;;;;;;4.10;1.58;;;;;;;;;;5016022;28;20026;-79
2023/12/31 12:29:25;;;;;;;3.80;1.73;;;;;;;;;;5025189;28;20041;-79
2023/12/31 12:31:50;;;;;;;3.80;1.50;;;;;;;;;;5030228;28;20038;-79
2023/12/31 12:34:15;;;;;;;3.88;1.75;;;;;;;;;;5019436;28;20477;-79
2023/12/31 12:36:41;;;;;;;6.22;2.13;;;;;;;;;;5026790;28;20088;-79
2023/12/31 12:39:13;;;;;;;5.32;1.90;;;;;;;;;;5017060;28;20504;-80
2023/12/31 12:41:38;;;;;;;5.18;1.77;;;;;;;;;;5023534;28;20037;-79
2023/12/31 12:44:06;;;;;;;4.75;1.95;;;;;;;;;;5026217;28;20036;-79
2023/12/31 12:46:31;;;;;;;4.22;1.70;;;;;;;;;;5026303;28;20490;-79
2023/12/31 12:48:57;;;;;;;3.50;1.63;;;;;;;;;;5026003;28;20034;-80
2023/12/31 12:51:22;;;;;;;5.90;2.15;;;;;;;;;;5022038;28;20025;-80
2023/12/31 12:53:48;;;;;;;6.10;2.20;;;;;;;;;;5020174;28;20434;-79
2023/12/31 12:56:13;;;;;;;6.43;2.25;;;;;;;;;;5013986;28;20401;-79
2023/12/31 12:58:39;;;;;;;4.85;2.03;;;;;;;;;;5014297;28;20049;-79
2023/12/31 13:01:04;;;;;;;4.82;1.90;;;;;;;;;;5027035;28;20057;-79
2023/12/31 13:03:29;;;;;;;5.78;2.53;;;;;;;;;;5026013;28;20072;-79
2023/12/31 13:05:54;;;;;;;4.50;1.90;;;;;;;;;;5022395;28;20087;-79
2023/12/31 13:08:20;;;;;;;3.88;1.88;;;;;;;;;;5019860;28;20057;-79
2023/12/31 13:10:45;;;;;;;5.27;2.10;;;;;;;;;;5024451;28;20033;-80
2023/12/31 13:13:10;;;;;;;7.28;1.80;;;;;;;;;;5018176;28;20272;-79
2023/12/31 13:15:35;;;;;;;4.75;2.05;;;;;;;;;;5022981;28;20030;-79
2023/12/31 13:18:00;;;;;;;4.13;1.70;;;;;;;;;;5024580;28;20440;-79
2023/12/31 13:20:26;;;;;;;4.72;1.98;;;;;;;;;;5021844;28;20033;-79
2023/12/31 13:22:51;;;;;;;4.82;2.00;;;;;;;;;;5027308;28;20033;-82
2023/12/31 13:25:17;;;;;;;3.75;1.88;;;;;;;;;;5031175;28;20030;-82
2023/12/31 13:27:42;;;;;;;4.82;1.77;;;;;;;;;;5026482;28;20397;-79
2023/12/31 13:30:07;;;;;;;5.72;1.80;;;;;;;;;;5021426;28;20093;-80
2023/12/31 13:32:32;;;;;;;5.18;2.28;;;;;;;;;;5026188;28;20033;-80
2023/12/31 13:34:58;;;;;;;4.15;1.73;;;;;;;;;;5029703;28;20024;-80
2023/12/31 13:37:23;;;;;;;3.97;1.90;;;;;;;;;;5022609;28;20512;-80
2023/12/31 13:39:48;;;;;;;3.08;1.40;;;;;;;;;;5016723;28;20497;-80
2023/12/31 13:42:13;;;;;;;5.97;2.42;;;;;;;;;;5030247;28;20037;-80
2023/12/31 13:44:39;;;;;;;4.07;1.67;;;;;;;;;;5027755;28;20091;-80
2023/12/31 13:47:04;;;;;;;4.88;2.30;;;;;;;;;;5029528;28;20083;-80
2023/12/31 13:49:29;;;;;;;5.30;2.20;;;;;;;;;;5019930;28;20185;-80
2023/12/31 13:51:54;;;;;;;4.72;2.05;;;;;;;;;;5027056;28;20030;-80
2023/12/31 13:54:21;;;;;;;5.25;2.33;;;;;;;;;;5016290;28;20026;-80
2023/12/31 13:56:46;;;;;;;5.72;2.22;;;;;;;;;;5020457;28;20138;-80
2023/12/31 13:59:12;;;;;;;3.90;2.03;;;;;;;;;;5023583;28;20037;-81
2023/12/31 14:01:37;;;;;;;4.60;1.85;;;;;;;;;;5024908;28;20058;-81
2023/12/31 14:04:03;;;;;;;4.57;1.58;;;;;;;;;;5018629;28;20081;-81
2023/12/31 14:06:28;;;;;;;4.38;1.65;;;;;;;;;;5021559;28;20048;-81
2023/12/31 14:08:53;;;;;;;4.13;1.98;;;;;;;;;;5013889;28;20021;-79
2023/12/31 14:11:19;;;;;;;4.85;1.98;;;;;;;;;;5022633;28;20034;-80
2023/12/31 14:13:44;;;;;;;4.00;1.90;;;;;;;;;;5024103;28;20033;-80
2023/12/31 14:16:10;;;;;;;4.57;1.77;;;;;;;;;;5020926;28;20567;-81
2023/12/31 14:18:35;;;;;;;5.05;1.77;;;;;;;;;;5013043;28;20033;-79
2023/12/31 14:21:00;;;;;;;5.43;2.22;;;;;;;;;;5021861;28;20034;-80
2023/12/31 14:23:25;;;;;;;3.72;1.63;;;;;;;;;;5021328;28;20033;-80
2023/12/31 14:25:50;;;;;;;3.22;1.60;;;;;;;;;;5039984;23;20050;-80
2023/12/31 14:28:16;;;;;;;6.07;1.80;;;;;;;;;;5030780;28;20090;-79
2023/12/31 14:30:42;;;;;;;5.35;2.20;;;;;;;;;;5028737;28;20041;-79
2023/12/31 14:33:08;;;;;;;3.88;1.70;;;;;;;;;;5033561;28;20441;-78